Culdrose, United Kingdom

1:29 PM BST on October 02, 2014 (GMT +0100)
Porthleven, Cornwall | Change Station
CLOSE
Current Station
Personal Weather Station
Location: Porthleven, ENGLAND
Elevation: 30 ft
Nearby Weather Stations

Elev 30 ft 50.09 °N, 5.32 °W | Updated 5 seconds ago

Scattered Clouds
Scattered Clouds
65.4 °F
Feels Like 65.4 °F
N
0.0
Wind Variable Wind from SSE
Gusts 0.0 mph

Today
High -- | Low -- °F
--% Chance of Precip.
Yesterday
High -- | Low -- °F
Precip. -- in
7:22 AM 6:57 PM
First Quarter, 58% visible
Pressure 30.36 in
Visibility 6.2 miles
Clouds Few 900 ft
Scattered Clouds 4500 ft
Dew Point 61 °F
Humidity 86%
Rainfall 0.00 in
Snow Depth Not available.
UV 3 out of 12
Pollen Not available.
Air Quality Not available.
Flu Activity Not available.
METAR EGHE 021220Z 19004KT 9999 FEW009 SCT045 18/15 Q1028

More Conditions Fewer Conditions

Pressure 30.36 in
Visibility 6.2 miles
Clouds Few 900 ft
Scattered Clouds 4500 ft
Dew Point 61 °F
Humidity 86%
Rainfall 0.00 in
Snow Depth Not available.
UV 3 out of 12
Pollen Not available.
Air Quality Not available.
Flu Activity Not available.
METAR EGHE 021220Z 19004KT 9999 FEW009 SCT045 18/15 Q1028

More Conditions Fewer Conditions

10-Day Weather Forecast

Almanac

Astronomy

Oct. 02, 2014 Rise Set
Actual Time 7:22 AM BST 6:57 PM BST
Civil Twilight 6:50 AM BST 7:29 PM BST
Nautical Twilight 6:12 AM BST 8:07 PM BST
Astronomical Twilight 5:33 AM BST 8:45 PM BST
Moon 3:23 PM BST No Moon Set
Length of Visible Light 12h 39m
Length of Day
11h 35m
Tomorrow will be 3m 42s shorter.
First Quarter, 58% of the Moon is Illuminated
Today
First Quarter
Oct 8
Full
Oct 15
Last Quarter
Oct 23
New
Oct 30
First Quarter

Yesterday's Extremes

Country Highs Country Lows

Community

WunderPhotos

Upload Photos

1,758,223 photos uploaded!

WunderBlogs® & News

Nearby

Snow Depth

Not available.

Earthquake Activity

City Distance Mag. Time & Date
No recent earthquake activity has been reported nearby.
Minimum magnitude displayed is 2.5.

Coastal Water Temperatures

Place Temperature
No Stations Reporting

Nearby Weather Stations